Time,TemperatureF,DewpointF,PressureIn,WindDirection,WindDirectionDegrees,WindSpeedMPH,WindSpeedGustMPH,Humidity,HourlyPrecipIn,Conditions,Clouds,dailyrainin,SolarRadiationWatts/m^2,SoftwareType,DateUTC
2013-01-22 00:00:00,26.7,10.1,30.13,SW,221,3.0,0.0,49,0.00,,,0.00,0,WeatherTracker,2013-01-22 07:00:00,
2013-01-22 00:10:00,26.6,10.0,30.13,SW,221,2.0,0.0,49,0.00,,,0.00,0,WeatherTracker,2013-01-22 07:10:00,
2013-01-22 00:20:00,26.6,9.6,30.13,SW,221,0.0,0.0,48,0.00,,,0.00,0,WeatherTracker,2013-01-22 07:20:00,
2013-01-22 00:30:00,26.6,9.1,30.13,SW,221,3.0,0.0,47,0.00,,,0.00,0,WeatherTracker,2013-01-22 07:30:00,
2013-01-22 00:40:00,27.0,9.5,30.13,SW,221,0.0,0.0,47,0.00,,,0.00,0,WeatherTracker,2013-01-22 07:40:00,
2013-01-22 00:50:00,27.6,6.5,30.12,WSW,244,2.0,0.0,40,0.00,,,0.00,0,WeatherTracker,2013-01-22 07:50:00,
2013-01-22 01:00:00,32.2,7.7,30.12,West,259,0.0,0.0,35,0.00,,,0.00,0,WeatherTracker,2013-01-22 08:00:00,
2013-01-22 01:10:00,33.9,6.5,30.12,West,279,1.0,0.0,31,0.00,,,0.00,0,WeatherTracker,2013-01-22 08:10:00,
2013-01-22 01:20:00,36.2,7.8,30.12,WSW,244,1.0,0.0,30,0.00,,,0.00,0,WeatherTracker,2013-01-22 08:20:00,
2013-01-22 01:30:00,33.7,6.3,30.12,WSW,244,0.0,0.0,31,0.00,,,0.00,0,WeatherTracker,2013-01-22 08:30:00,
2013-01-22 01:40:00,32.0,7.5,30.12,WSW,244,1.0,0.0,35,0.00,,,0.00,0,WeatherTracker,2013-01-22 08:40:00,
2013-01-22 01:50:00,30.6,7.5,30.12,WSW,244,0.0,0.0,37,0.00,,,0.00,0,WeatherTracker,2013-01-22 08:50:00,
2013-01-22 02:00:00,30.6,8.0,30.12,WSW,250,0.0,0.0,38,0.00,,,0.00,0,WeatherTracker,2013-01-22 09:00:00,
2013-01-22 02:10:00,30.3,7.2,30.12,WSW,246,0.0,0.0,37,0.00,,,0.00,0,WeatherTracker,2013-01-22 09:10:00,
2013-01-22 02:20:00,30.2,9.4,30.13,SSE,163,2.0,0.0,41,0.00,,,0.00,0,WeatherTracker,2013-01-22 09:20:00,
2013-01-22 02:30:00,29.5,8.2,30.13,South,180,1.0,0.0,40,0.00,,,0.00,0,WeatherTracker,2013-01-22 09:30:00,
2013-01-22 02:40:00,28.7,6.9,30.13,South,186,0.0,0.0,39,0.00,,,0.00,0,WeatherTracker,2013-01-22 09:40:00,
2013-01-22 02:50:00,28.9,7.1,30.13,SSW,192,1.0,0.0,39,0.00,,,0.00,0,WeatherTracker,2013-01-22 09:50:00,
2013-01-22 03:01:00,28.2,7.0,30.13,WSW,242,0.0,0.0,40,0.00,,,0.00,0,WeatherTracker,2013-01-22 10:01:00,
2013-01-22 03:10:00,27.7,8.2,30.12,WSW,246,1.0,0.0,43,0.00,,,0.00,0,WeatherTracker,2013-01-22 10:10:00,
2013-01-22 03:20:00,27.2,7.7,30.12,WSW,246,3.0,0.0,43,0.00,,,0.00,0,WeatherTracker,2013-01-22 10:20:00,
2013-01-22 03:30:00,26.9,6.9,30.13,SW,217,0.0,0.0,42,0.00,,,0.00,0,WeatherTracker,2013-01-22 10:30:00,
2013-01-22 03:40:00,27.4,7.4,30.13,SW,215,1.0,0.0,42,0.00,,,0.00,0,WeatherTracker,2013-01-22 10:40:00,
2013-01-22 03:50:00,27.5,6.4,30.13,SW,215,2.0,0.0,40,0.00,,,0.00,0,WeatherTracker,2013-01-22 10:50:00,
2013-01-22 04:00:00,27.3,5.1,30.13,SW,215,0.0,0.0,38,0.00,,,0.00,0,WeatherTracker,2013-01-22 11:00:00,
2013-01-22 04:10:00,27.3,5.6,30.14,SW,215,0.0,0.0,39,0.00,,,0.00,0,WeatherTracker,2013-01-22 11:10:00,
2013-01-22 04:20:00,27.3,5.6,30.14,SW,215,1.0,0.0,39,0.00,,,0.00,0,WeatherTracker,2013-01-22 11:20:00,
2013-01-22 04:30:00,32.4,6.5,30.14,West,281,3.0,0.0,33,0.00,,,0.00,0,WeatherTracker,2013-01-22 11:30:00,
2013-01-22 04:40:00,34.7,5.7,30.14,West,281,4.0,0.0,29,0.00,,,0.00,0,WeatherTracker,2013-01-22 11:40:00,
2013-01-22 04:50:00,35.2,6.2,30.14,West,267,5.0,0.0,29,0.00,,,0.00,0,WeatherTracker,2013-01-22 11:50:00,
2013-01-22 05:00:00,35.2,6.2,30.13,West,263,3.0,0.0,29,0.00,,,0.00,0,WeatherTracker,2013-01-22 12:00:00,
2013-01-22 05:10:00,33.5,6.1,30.13,West,263,1.0,0.0,31,0.00,,,0.00,0,WeatherTracker,2013-01-22 12:10:00,
2013-01-22 05:20:00,32.9,7.0,30.13,West,263,2.0,0.0,33,0.00,,,0.00,0,WeatherTracker,2013-01-22 12:20:00,
2013-01-22 05:30:00,32.3,6.5,30.13,West,263,0.0,0.0,33,0.00,,,0.00,0,WeatherTracker,2013-01-22 12:30:00,
2013-01-22 05:40:00,31.1,6.7,30.13,West,263,1.0,0.0,35,0.00,,,0.00,0,WeatherTracker,2013-01-22 12:40:00,
2013-01-22 05:50:00,29.7,7.2,30.13,West,263,1.0,0.0,38,0.00,,,0.00,0,WeatherTracker,2013-01-22 12:50:00,
2013-01-22 06:00:00,28.5,6.2,30.13,West,263,1.0,0.0,38,0.00,,,0.00,0,WeatherTracker,2013-01-22 13:00:00,
2013-01-22 06:10:00,27.5,6.4,30.13,West,263,1.0,0.0,40,0.00,,,0.00,0,WeatherTracker,2013-01-22 13:10:00,
2013-01-22 06:20:00,27.0,7.0,30.14,West,263,1.0,0.0,42,0.00,,,0.00,0,WeatherTracker,2013-01-22 13:20:00,
2013-01-22 06:30:00,26.1,6.2,30.14,West,263,1.0,0.0,42,0.00,,,0.00,0,WeatherTracker,2013-01-22 13:30:00,
2013-01-22 06:40:00,26.3,6.9,30.15,West,263,2.0,0.0,43,0.00,,,0.00,0,WeatherTracker,2013-01-22 13:40:00,
2013-01-22 06:50:00,26.3,7.9,30.15,West,263,1.0,0.0,45,0.00,,,0.00,0,WeatherTracker,2013-01-22 13:50:00,
2013-01-22 07:00:00,26.5,6.5,30.16,West,263,0.0,0.0,42,0.00,,,0.00,0,WeatherTracker,2013-01-22 14:00:00,
2013-01-22 07:10:00,26.3,5.8,30.15,West,263,1.0,0.0,41,0.00,,,0.00,0,WeatherTracker,2013-01-22 14:10:00,
2013-01-22 07:20:00,26.1,6.7,30.14,West,263,2.0,0.0,43,0.00,,,0.00,0,WeatherTracker,2013-01-22 14:20:00,
2013-01-22 07:30:00,27.2,5.6,30.14,West,263,0.0,0.0,39,0.00,,,0.00,0,WeatherTracker,2013-01-22 14:30:00,
2013-01-22 07:40:00,26.8,6.8,30.14,West,263,1.0,0.0,42,0.00,,,0.00,5,WeatherTracker,2013-01-22 14:40:00,
2013-01-22 07:50:00,26.4,6.5,30.14,West,263,1.0,0.0,42,0.00,,,0.00,14,WeatherTracker,2013-01-22 14:50:00,
2013-01-22 08:00:00,26.5,6.5,30.14,West,263,3.0,0.0,42,0.00,,,0.00,18,WeatherTracker,2013-01-22 15:00:00,
2013-01-22 08:10:00,27.2,7.2,30.15,West,263,2.0,0.0,42,0.00,,,0.00,26,WeatherTracker,2013-01-22 15:10:00,
2013-01-22 08:20:00,27.3,6.7,30.15,West,263,2.0,0.0,41,0.00,,,0.00,40,WeatherTracker,2013-01-22 15:20:00,
2013-01-22 08:30:00,28.9,5.3,30.16,West,280,4.0,0.0,36,0.00,,,0.00,90,WeatherTracker,2013-01-22 15:30:00,
2013-01-22 08:40:00,36.1,6.2,30.16,WNW,286,5.0,0.0,28,0.00,,,0.00,120,WeatherTracker,2013-01-22 15:40:00,
2013-01-22 08:50:00,37.6,5.0,30.16,West,277,5.0,0.0,25,0.00,,,0.00,149,WeatherTracker,2013-01-22 15:50:00,
2013-01-22 09:00:00,37.5,4.9,30.16,WNW,300,3.0,0.0,25,0.00,,,0.00,156,WeatherTracker,2013-01-22 16:00:00,
2013-01-22 09:10:00,38.3,3.8,30.16,WNW,283,4.0,0.0,23,0.00,,,0.00,116,WeatherTracker,2013-01-22 16:10:00,
2013-01-22 09:20:00,39.6,6.7,30.15,NW,318,1.0,0.0,25,0.00,,,0.00,199,WeatherTracker,2013-01-22 16:20:00,
2013-01-22 09:30:00,38.0,5.3,30.16,West,278,1.0,0.0,25,0.00,,,0.00,283,WeatherTracker,2013-01-22 16:30:00,
2013-01-22 09:40:00,40.9,3.0,30.16,WNW,290,2.0,0.0,20,0.00,,,0.00,272,WeatherTracker,2013-01-22 16:40:00,
2013-01-22 09:50:00,42.4,1.9,30.16,WNW,294,2.0,0.0,18,0.00,,,0.00,304,WeatherTracker,2013-01-22 16:50:00,
2013-01-22 10:00:00,42.9,1.1,30.16,NNW,329,3.0,0.0,17,0.00,,,0.00,258,WeatherTracker,2013-01-22 17:00:00,
2013-01-22 10:10:00,42.9,-0.2,30.16,West,279,6.0,0.0,16,0.00,,,0.00,322,WeatherTracker,2013-01-22 17:10:00,
2013-01-22 10:20:00,42.1,0.5,30.17,WNW,290,1.0,0.0,17,0.00,,,0.00,111,WeatherTracker,2013-01-22 17:20:00,
2013-01-22 10:30:00,41.8,0.2,30.17,West,263,8.0,0.0,17,0.00,,,0.00,93,WeatherTracker,2013-01-22 17:30:00,
2013-01-22 10:40:00,41.7,1.4,30.16,NW,311,7.0,0.0,18,0.00,,,0.00,267,WeatherTracker,2013-01-22 17:40:00,
2013-01-22 10:50:00,41.7,1.4,30.16,West,270,4.0,0.0,18,0.00,,,0.00,380,WeatherTracker,2013-01-22 17:50:00,
2013-01-22 11:00:00,41.5,1.2,30.16,West,269,5.0,0.0,18,0.00,,,0.00,469,WeatherTracker,2013-01-22 18:00:00,
2013-01-22 11:10:00,41.8,2.6,30.16,WNW,285,5.0,0.0,19,0.00,,,0.00,367,WeatherTracker,2013-01-22 18:10:00,
2013-01-22 11:20:00,41.6,3.5,30.16,West,277,5.0,0.0,20,0.00,,,0.00,469,WeatherTracker,2013-01-22 18:20:00,
2013-01-22 11:30:00,41.8,3.7,30.16,NW,304,3.0,0.0,20,0.00,,,0.00,485,WeatherTracker,2013-01-22 18:30:00,
2013-01-22 11:40:00,42.4,5.3,30.15,NW,311,3.0,0.0,21,0.00,,,0.00,515,WeatherTracker,2013-01-22 18:40:00,
2013-01-22 11:50:00,42.3,5.2,30.15,ENE,63,4.0,0.0,21,0.00,,,0.00,497,WeatherTracker,2013-01-22 18:50:00,
2013-01-22 12:00:00,41.8,3.7,30.15,WNW,290,7.0,0.0,20,0.00,,,0.00,510,WeatherTracker,2013-01-22 19:00:00,
2013-01-22 12:10:00,41.8,3.7,30.14,NW,313,5.0,0.0,20,0.00,,,0.00,482,WeatherTracker,2013-01-22 19:10:00,
2013-01-22 12:20:00,42.3,5.2,30.14,West,281,4.0,0.0,21,0.00,,,0.00,165,WeatherTracker,2013-01-22 19:20:00,
2013-01-22 12:30:00,42.0,5.9,30.13,West,280,2.0,0.0,22,0.00,,,0.00,383,WeatherTracker,2013-01-22 19:30:00,
2013-01-22 12:40:00,43.9,5.5,30.13,WNW,282,0.0,0.0,20,0.00,,,0.00,332,WeatherTracker,2013-01-22 19:40:00,
2013-01-22 12:50:00,43.6,8.3,30.12,ESE,103,3.0,0.0,23,0.00,,,0.00,404,WeatherTracker,2013-01-22 19:50:00,
2013-01-22 13:00:00,44.0,5.5,30.13,East,92,0.0,0.0,20,0.00,,,0.00,427,WeatherTracker,2013-01-22 20:00:00,
2013-01-22 13:10:00,44.0,6.6,30.12,ESE,117,1.0,0.0,21,0.00,,,0.00,378,WeatherTracker,2013-01-22 20:10:00,
2013-01-22 13:20:00,43.6,7.3,30.12,ESE,112,3.0,0.0,22,0.00,,,0.00,420,WeatherTracker,2013-01-22 20:20:00,
2013-01-22 13:30:00,42.9,6.7,30.12,ESE,105,1.0,0.0,22,0.00,,,0.00,243,WeatherTracker,2013-01-22 20:30:00,
2013-01-22 13:40:00,42.8,10.3,30.12,ESE,106,1.0,0.0,26,0.00,,,0.00,441,WeatherTracker,2013-01-22 20:40:00,
2013-01-22 13:50:00,43.1,7.9,30.13,NNW,344,1.0,0.0,23,0.00,,,0.00,468,WeatherTracker,2013-01-22 20:50:00,
2013-01-22 14:00:00,42.9,8.6,30.13,ENE,78,1.0,0.0,24,0.00,,,0.00,425,WeatherTracker,2013-01-22 21:00:00,
2013-01-22 14:10:00,43.1,7.9,30.13,East,84,0.0,0.0,23,0.00,,,0.00,381,WeatherTracker,2013-01-22 21:10:00,
2013-01-22 14:20:00,42.7,8.5,30.13,East,98,0.0,0.0,24,0.00,,,0.00,281,WeatherTracker,2013-01-22 21:20:00,
2013-01-22 14:30:00,42.5,9.2,30.14,East,98,1.0,0.0,25,0.00,,,0.00,98,WeatherTracker,2013-01-22 21:30:00,
2013-01-22 14:40:00,42.2,8.9,30.14,East,98,1.0,0.0,25,0.00,,,0.00,281,WeatherTracker,2013-01-22 21:40:00,
2013-01-22 14:50:00,42.8,6.6,30.13,East,98,0.0,0.0,22,0.00,,,0.00,302,WeatherTracker,2013-01-22 21:50:00,
2013-01-22 15:00:00,43.5,10.0,30.13,East,98,1.0,0.0,25,0.00,,,0.00,251,WeatherTracker,2013-01-22 22:00:00,
2013-01-22 15:10:00,42.2,8.0,30.12,East,98,2.0,0.0,24,0.00,,,0.00,199,WeatherTracker,2013-01-22 22:10:00,
2013-01-22 15:20:00,41.9,8.7,30.12,East,100,2.0,0.0,25,0.00,,,0.00,193,WeatherTracker,2013-01-22 22:20:00,
2013-01-22 15:30:00,41.7,8.5,30.12,East,101,2.0,0.0,25,0.00,,,0.00,113,WeatherTracker,2013-01-22 22:30:00,
2013-01-22 15:40:00,41.6,6.6,30.13,ESE,102,1.0,0.0,23,0.00,,,0.00,67,WeatherTracker,2013-01-22 22:40:00,
2013-01-22 15:50:00,41.6,9.3,30.14,ESE,102,2.0,0.0,26,0.00,,,0.00,42,WeatherTracker,2013-01-22 22:50:00,
2013-01-22 16:00:00,40.4,14.9,30.14,ESE,103,1.0,0.0,35,0.00,,,0.00,46,WeatherTracker,2013-01-22 23:00:00,
2013-01-22 16:10:00,38.6,15.2,30.14,ESE,103,0.0,0.0,38,0.00,,,0.00,42,WeatherTracker,2013-01-22 23:10:00,
2013-01-22 16:20:00,37.1,14.5,30.14,ESE,103,0.0,0.0,39,0.00,,,0.00,39,WeatherTracker,2013-01-22 23:20:00,
2013-01-22 16:30:00,36.1,12.4,30.15,ESE,103,2.0,0.0,37,0.00,,,0.00,25,WeatherTracker,2013-01-22 23:30:00,
2013-01-22 16:40:00,35.2,13.3,30.14,ESE,103,0.0,0.0,40,0.00,,,0.00,18,WeatherTracker,2013-01-22 23:40:00,
2013-01-22 16:50:00,34.4,13.2,30.14,ESE,103,0.0,0.0,41,0.00,,,0.00,7,WeatherTracker,2013-01-22 23:50:00,
2013-01-22 17:00:00,33.3,13.2,30.13,ESE,103,0.0,0.0,43,0.00,,,0.00,0,WeatherTracker,2013-01-23 00:00:00,
2013-01-22 17:10:00,32.6,12.6,30.12,ESE,103,0.0,0.0,43,0.00,,,0.00,0,WeatherTracker,2013-01-23 00:10:00,
2013-01-22 17:20:00,32.2,12.8,30.12,ESE,103,0.0,0.0,44,0.00,,,0.00,0,WeatherTracker,2013-01-23 00:20:00,
2013-01-22 17:30:00,32.2,12.2,30.12,ESE,103,0.0,0.0,43,0.00,,,0.00,0,WeatherTracker,2013-01-23 00:30:00,
2013-01-22 17:40:00,31.7,12.3,30.12,ESE,103,0.0,0.0,44,0.00,,,0.00,0,WeatherTracker,2013-01-23 00:40:00,
2013-01-22 17:50:00,31.1,11.8,30.12,ESE,103,0.0,0.0,44,0.00,,,0.00,0,WeatherTracker,2013-01-23 00:50:00,
2013-01-22 18:00:00,30.5,11.7,30.13,ESE,103,1.0,0.0,45,0.00,,,0.00,0,WeatherTracker,2013-01-23 01:00:00,
2013-01-22 18:10:00,29.8,12.5,30.13,ESE,103,0.0,0.0,48,0.00,,,0.00,0,WeatherTracker,2013-01-23 01:10:00,
2013-01-22 18:20:00,29.4,11.7,30.13,ESE,103,1.0,0.0,47,0.00,,,0.00,0,WeatherTracker,2013-01-23 01:20:00,
2013-01-22 18:30:00,29.4,12.2,30.13,ESE,103,1.0,0.0,48,0.00,,,0.00,0,WeatherTracker,2013-01-23 01:30:00,
2013-01-22 18:40:00,29.1,12.4,30.13,ESE,103,2.0,0.0,49,0.00,,,0.00,0,WeatherTracker,2013-01-23 01:40:00,
2013-01-22 18:50:00,29.0,11.8,30.12,ESE,103,0.0,0.0,48,0.00,,,0.00,0,WeatherTracker,2013-01-23 01:50:00,
2013-01-22 19:00:00,29.1,12.4,30.12,ESE,103,0.0,0.0,49,0.00,,,0.00,0,WeatherTracker,2013-01-23 02:00:00,
2013-01-22 19:10:00,29.6,11.4,30.11,ESE,103,0.0,0.0,46,0.00,,,0.00,0,WeatherTracker,2013-01-23 02:10:00,
2013-01-22 19:20:00,29.2,12.0,30.11,ESE,103,1.0,0.0,48,0.00,,,0.00,0,WeatherTracker,2013-01-23 02:20:00,
2013-01-22 19:30:00,28.9,12.2,30.11,ESE,103,0.0,0.0,49,0.00,,,0.00,0,WeatherTracker,2013-01-23 02:30:00,
2013-01-22 19:40:00,28.8,11.6,30.11,ESE,103,1.0,0.0,48,0.00,,,0.00,0,WeatherTracker,2013-01-23 02:40:00,
2013-01-22 19:50:00,28.5,10.4,30.11,ESE,103,0.0,0.0,46,0.00,,,0.00,0,WeatherTracker,2013-01-23 02:50:00,
2013-01-22 20:00:00,28.1,11.0,30.11,ESE,103,0.0,0.0,48,0.00,,,0.00,0,WeatherTracker,2013-01-23 03:00:00,
2013-01-22 20:10:00,28.0,10.9,30.11,ESE,103,0.0,0.0,48,0.00,,,0.00,0,WeatherTracker,2013-01-23 03:10:00,
2013-01-22 20:20:00,27.8,10.7,30.11,ESE,103,1.0,0.0,48,0.00,,,0.00,0,WeatherTracker,2013-01-23 03:20:00,
2013-01-22 20:30:00,27.8,10.7,30.11,ESE,103,1.0,0.0,48,0.00,,,0.00,0,WeatherTracker,2013-01-23 03:30:00,
2013-01-22 20:40:00,27.9,10.3,30.11,ESE,103,1.0,0.0,47,0.00,,,0.00,0,WeatherTracker,2013-01-23 03:40:00,
2013-01-22 20:50:00,27.8,9.7,30.11,ESE,103,1.0,0.0,46,0.00,,,0.00,0,WeatherTracker,2013-01-23 03:50:00,
2013-01-22 21:00:00,27.8,9.3,30.11,ESE,103,1.0,0.0,45,0.00,,,0.00,0,WeatherTracker,2013-01-23 04:00:00,
2013-01-22 21:10:00,28.4,9.3,30.11,ESE,103,1.0,0.0,44,0.00,,,0.00,0,WeatherTracker,2013-01-23 04:10:00,
2013-01-22 21:20:00,28.6,10.0,30.11,ESE,103,1.0,0.0,45,0.00,,,0.00,0,WeatherTracker,2013-01-23 04:20:00,
2013-01-22 21:30:00,28.8,9.7,30.11,ESE,103,1.0,0.0,44,0.00,,,0.00,0,WeatherTracker,2013-01-23 04:30:00,
2013-01-22 21:40:00,29.2,9.5,30.11,ESE,103,0.0,0.0,43,0.00,,,0.00,0,WeatherTracker,2013-01-23 04:40:00,
2013-01-22 21:50:00,29.1,9.4,30.11,ESE,107,1.0,0.0,43,0.00,,,0.00,0,WeatherTracker,2013-01-23 04:50:00,
2013-01-22 22:10:00,29.2,9.0,30.11,ESE,107,1.0,0.0,42,0.00,,,0.00,0,WeatherTracker,2013-01-23 05:10:00,
2013-01-22 22:20:00,29.2,9.5,30.11,ESE,107,1.0,0.0,43,0.00,,,0.00,0,WeatherTracker,2013-01-23 05:20:00,
2013-01-22 22:30:00,29.2,9.0,30.11,ESE,107,1.0,0.0,42,0.00,,,0.00,0,WeatherTracker,2013-01-23 05:30:00,
2013-01-22 22:40:00,29.3,9.1,30.11,ESE,107,1.0,0.0,42,0.00,,,0.00,0,WeatherTracker,2013-01-23 05:40:00,
2013-01-22 22:50:00,29.2,9.5,30.11,ESE,107,1.0,0.0,43,0.00,,,0.00,0,WeatherTracker,2013-01-23 05:50:00,
2013-01-22 23:00:00,29.5,9.3,30.11,ESE,107,3.0,0.0,42,0.00,,,0.00,0,WeatherTracker,2013-01-23 06:00:00,
2013-01-22 23:10:00,29.6,10.4,30.11,ESE,108,0.0,0.0,44,0.00,,,0.00,0,WeatherTracker,2013-01-23 06:10:00,
2013-01-22 23:20:00,30.5,10.2,30.10,ESE,108,1.0,0.0,42,0.00,,,0.00,0,WeatherTracker,2013-01-23 06:20:00,
2013-01-22 23:30:00,30.5,9.6,30.10,ESE,108,1.0,0.0,41,0.00,,,0.00,0,WeatherTracker,2013-01-23 06:30:00,
2013-01-22 23:40:00,30.4,9.5,30.09,ESE,108,0.0,0.0,41,0.00,,,0.00,0,WeatherTracker,2013-01-23 06:40:00,
2013-01-22 23:50:00,30.6,10.3,30.09,ESE,108,2.0,0.0,42,0.00,,,0.00,0,WeatherTracker,2013-01-23 06:50:00,